sensor_id;sensor_type;location;lat;lon;timestamp;pressure;altitude;pressure_sealevel;temperature;humidity
12785;BME280;6456;42.680;23.260;2022-11-20T00:01:25;93856.94;;;18.32;77.54
12785;BME280;6456;42.680;23.260;2022-11-20T00:03:54;93850.63;;;18.23;78.36
12785;BME280;6456;42.680;23.260;2022-11-20T00:06:22;93886.66;;;18.49;77.94
12785;BME280;6456;42.680;23.260;2022-11-20T00:08:49;93877.66;;;18.40;78.23
12785;BME280;6456;42.680;23.260;2022-11-20T00:11:19;93845.59;;;18.17;77.90
12785;BME280;6456;42.680;23.260;2022-11-20T00:13:48;93811.25;;;18.20;77.32
12785;BME280;6456;42.680;23.260;2022-11-20T00:16:17;93877.09;;;18.43;77.80
12785;BME280;6456;42.680;23.260;2022-11-20T00:18:44;93827.91;;;18.36;76.13
12785;BME280;6456;42.680;23.260;2022-11-20T00:21:13;93861.28;;;18.57;77.55
12785;BME280;6456;42.680;23.260;2022-11-20T00:23:40;93810.78;;;18.13;76.71
12785;BME280;6456;42.680;23.260;2022-11-20T00:26:09;93835.75;;;18.17;76.65
12785;BME280;6456;42.680;23.260;2022-11-20T00:28:37;93894.31;;;18.61;75.56
12785;BME280;6456;42.680;23.260;2022-11-20T00:31:06;93880.69;;;18.63;75.37
12785;BME280;6456;42.680;23.260;2022-11-20T00:33:33;93839.91;;;18.33;76.57
12785;BME280;6456;42.680;23.260;2022-11-20T00:36:01;93889.97;;;18.70;75.81
12785;BME280;6456;42.680;23.260;2022-11-20T00:38:29;93869.63;;;18.45;77.00
12785;BME280;6456;42.680;23.260;2022-11-20T00:40:57;93841.97;;;18.36;76.10
12785;BME280;6456;42.680;23.260;2022-11-20T00:43:24;93871.47;;;18.50;77.11
12785;BME280;6456;42.680;23.260;2022-11-20T00:45:57;93888.84;;;18.76;75.05
12785;BME280;6456;42.680;23.260;2022-11-20T00:48:24;93788.78;;;17.98;76.84
12785;BME280;6456;42.680;23.260;2022-11-20T00:50:51;93852.47;;;18.28;76.97
12785;BME280;6456;42.680;23.260;2022-11-20T00:53:18;93894.88;;;18.58;77.42
12785;BME280;6456;42.680;23.260;2022-11-20T00:55:53;93908.06;;;18.73;78.04
12785;BME280;6456;42.680;23.260;2022-11-20T00:58:20;93819.13;;;17.97;78.27
12785;BME280;6456;42.680;23.260;2022-11-20T01:00:47;93863.56;;;18.35;78.82
12785;BME280;6456;42.680;23.260;2022-11-20T01:03:16;93800.00;;;17.89;78.33
12785;BME280;6456;42.680;23.260;2022-11-20T01:05:43;93858.41;;;18.15;78.81
12785;BME280;6456;42.680;23.260;2022-11-20T01:08:10;93860.91;;;18.35;78.45
12785;BME280;6456;42.680;23.260;2022-11-20T01:10:37;93823.88;;;18.05;79.02
12785;BME280;6456;42.680;23.260;2022-11-20T01:13:04;93812.38;;;18.09;79.55
12785;BME280;6456;42.680;23.260;2022-11-20T01:15:48;93892.41;;;18.62;78.95
12785;BME280;6456;42.680;23.260;2022-11-20T01:18:16;93885.78;;;18.59;78.81
12785;BME280;6456;42.680;23.260;2022-11-20T01:20:43;93881.03;;;18.56;79.89
12785;BME280;6456;42.680;23.260;2022-11-20T01:23:10;93853.13;;;18.48;78.86
12785;BME280;6456;42.680;23.260;2022-11-20T01:25:37;93889.56;;;18.53;78.85
12785;BME280;6456;42.680;23.260;2022-11-20T01:28:04;93831.22;;;18.18;79.08
12785;BME280;6456;42.680;23.260;2022-11-20T01:30:31;93831.56;;;18.40;76.79
12785;BME280;6456;42.680;23.260;2022-11-20T01:32:57;93809.63;;;18.19;76.57
12785;BME280;6456;42.680;23.260;2022-11-20T01:35:26;93873.09;;;18.51;77.18
12785;BME280;6456;42.680;23.260;2022-11-20T01:37:53;93815.19;;;18.28;76.14
12785;BME280;6456;42.680;23.260;2022-11-20T01:40:19;93834.31;;;18.30;76.60
12785;BME280;6456;42.680;23.260;2022-11-20T01:42:53;93843.00;;;18.45;77.03
12785;BME280;6456;42.680;23.260;2022-11-20T01:46:05;93852.84;;;18.50;75.58
12785;BME280;6456;42.680;23.260;2022-11-20T01:48:36;93815.47;;;18.21;76.98
12785;BME280;6456;42.680;23.260;2022-11-20T01:51:12;93882.59;;;18.57;77.58
12785;BME280;6456;42.680;23.260;2022-11-20T01:53:43;93837.00;;;18.30;77.11
12785;BME280;6456;42.680;23.260;2022-11-20T01:56:12;93903.38;;;18.60;77.30
12785;BME280;6456;42.680;23.260;2022-11-20T01:58:44;93879.47;;;18.50;77.24
12785;BME280;6456;42.680;23.260;2022-11-20T02:01:14;93845.22;;;18.33;77.38
12785;BME280;6456;42.680;23.260;2022-11-20T02:03:41;93831.22;;;18.18;78.30
12785;BME280;6456;42.680;23.260;2022-11-20T02:06:14;93790.47;;;17.88;77.71
12785;BME280;6456;42.680;23.260;2022-11-20T02:08:44;93828.34;;;18.09;76.88
12785;BME280;6456;42.680;23.260;2022-11-20T02:11:10;93793.13;;;17.88;77.18
12785;BME280;6456;42.680;23.260;2022-11-20T02:13:39;93893.03;;;18.53;77.52
12785;BME280;6456;42.680;23.260;2022-11-20T02:16:10;93846.94;;;18.14;77.98
12785;BME280;6456;42.680;23.260;2022-11-20T02:18:38;93890.97;;;18.40;79.34
12785;BME280;6456;42.680;23.260;2022-11-20T02:21:08;93892.28;;;18.43;78.20
12785;BME280;6456;42.680;23.260;2022-11-20T02:26:14;93843.63;;;17.99;78.50
12785;BME280;6456;42.680;23.260;2022-11-20T02:28:42;93881.91;;;18.41;76.59
12785;BME280;6456;42.680;23.260;2022-11-20T02:31:09;93851.75;;;18.12;78.20
12785;BME280;6456;42.680;23.260;2022-11-20T02:33:36;93841.16;;;18.07;77.76
12785;BME280;6456;42.680;23.260;2022-11-20T02:36:04;93901.59;;;18.45;78.66
12785;BME280;6456;42.680;23.260;2022-11-20T02:38:31;93910.13;;;18.42;79.15
12785;BME280;6456;42.680;23.260;2022-11-20T02:40:58;93913.13;;;18.36;79.06
12785;BME280;6456;42.680;23.260;2022-11-20T02:43:26;93891.31;;;18.29;79.68
12785;BME280;6456;42.680;23.260;2022-11-20T02:45:53;93873.28;;;18.21;79.64
12785;BME280;6456;42.680;23.260;2022-11-20T02:48:20;93863.28;;;18.03;80.85
12785;BME280;6456;42.680;23.260;2022-11-20T02:50:47;93884.22;;;18.14;81.12
12785;BME280;6456;42.680;23.260;2022-11-20T02:53:13;93914.22;;;18.30;82.42
12785;BME280;6456;42.680;23.260;2022-11-20T02:55:41;93906.25;;;18.25;82.73
12785;BME280;6456;42.680;23.260;2022-11-20T02:58:08;93828.88;;;17.72;82.87
12785;BME280;6456;42.680;23.260;2022-11-20T03:00:36;93857.00;;;17.88;83.19
12785;BME280;6456;42.680;23.260;2022-11-20T03:03:03;93917.22;;;18.18;84.33
12785;BME280;6456;42.680;23.260;2022-11-20T03:05:30;93895.81;;;17.89;84.51
12785;BME280;6456;42.680;23.260;2022-11-20T03:07:57;93891.75;;;18.02;84.82
12785;BME280;6456;42.680;23.260;2022-11-20T03:10:24;93836.13;;;17.57;84.80
12785;BME280;6456;42.680;23.260;2022-11-20T03:12:53;93872.44;;;17.81;84.29
12785;BME280;6456;42.680;23.260;2022-11-20T03:15:21;93806.09;;;17.46;84.29
12785;BME280;6456;42.680;23.260;2022-11-20T03:17:52;93834.81;;;17.54;85.32
12785;BME280;6456;42.680;23.260;2022-11-20T03:20:19;93918.63;;;18.06;85.41
12785;BME280;6456;42.680;23.260;2022-11-20T03:22:46;93882.53;;;17.89;85.66
12785;BME280;6456;42.680;23.260;2022-11-20T03:25:13;93875.97;;;17.72;85.36
12785;BME280;6456;42.680;23.260;2022-11-20T03:27:40;93839.88;;;17.56;85.42
12785;BME280;6456;42.680;23.260;2022-11-20T03:30:08;93860.78;;;17.72;85.08
12785;BME280;6456;42.680;23.260;2022-11-20T03:32:35;93918.66;;;18.01;84.92
12785;BME280;6456;42.680;23.260;2022-11-20T03:35:04;93917.06;;;18.00;84.29
12785;BME280;6456;42.680;23.260;2022-11-20T03:37:31;93888.97;;;17.83;84.44
12785;BME280;6456;42.680;23.260;2022-11-20T03:39:58;93930.63;;;18.03;84.62
12785;BME280;6456;42.680;23.260;2022-11-20T03:42:25;93861.16;;;17.56;84.56
12785;BME280;6456;42.680;23.260;2022-11-20T03:45:10;93943.66;;;18.05;84.64
12785;BME280;6456;42.680;23.260;2022-11-20T03:47:37;93898.03;;;17.72;84.96
12785;BME280;6456;42.680;23.260;2022-11-20T03:50:06;93876.81;;;17.62;84.60
12785;BME280;6456;42.680;23.260;2022-11-20T03:52:33;93878.44;;;17.48;85.30
12785;BME280;6456;42.680;23.260;2022-11-20T03:55:00;93946.38;;;17.89;85.11
12785;BME280;6456;42.680;23.260;2022-11-20T03:57:27;93932.31;;;17.84;85.30
12785;BME280;6456;42.680;23.260;2022-11-20T03:59:54;93909.28;;;17.59;85.27
12785;BME280;6456;42.680;23.260;2022-11-20T04:02:20;93951.19;;;17.92;84.91
12785;BME280;6456;42.680;23.260;2022-11-20T04:04:48;93956.53;;;17.82;85.62
12785;BME280;6456;42.680;23.260;2022-11-20T04:07:16;93911.41;;;17.57;84.95
12785;BME280;6456;42.680;23.260;2022-11-20T04:09:43;93945.41;;;17.70;85.33
12785;BME280;6456;42.680;23.260;2022-11-20T04:12:10;93928.97;;;17.58;85.45
12785;BME280;6456;42.680;23.260;2022-11-20T04:14:37;93910.09;;;17.55;85.41
12785;BME280;6456;42.680;23.260;2022-11-20T04:17:04;93940.84;;;17.81;85.03
12785;BME280;6456;42.680;23.260;2022-11-20T04:19:31;93870.78;;;17.31;85.54
12785;BME280;6456;42.680;23.260;2022-11-20T04:21:58;93915.13;;;17.56;84.92
12785;BME280;6456;42.680;23.260;2022-11-20T04:24:26;93935.34;;;17.62;85.63
12785;BME280;6456;42.680;23.260;2022-11-20T04:26:53;93872.16;;;17.19;85.20
12785;BME280;6456;42.680;23.260;2022-11-20T04:29:20;93923.94;;;17.42;84.70
12785;BME280;6456;42.680;23.260;2022-11-20T04:31:47;93893.88;;;17.41;84.45
12785;BME280;6456;42.680;23.260;2022-11-20T04:34:13;93954.75;;;17.68;84.90
12785;BME280;6456;42.680;23.260;2022-11-20T04:36:40;93929.50;;;17.55;85.32
12785;BME280;6456;42.680;23.260;2022-11-20T04:39:12;93908.81;;;17.32;85.99
12785;BME280;6456;42.680;23.260;2022-11-20T04:41:41;93906.97;;;17.33;86.38
12785;BME280;6456;42.680;23.260;2022-11-20T04:44:07;93934.53;;;17.62;86.00
12785;BME280;6456;42.680;23.260;2022-11-20T04:46:37;93910.63;;;17.47;86.05
12785;BME280;6456;42.680;23.260;2022-11-20T04:49:05;93927.91;;;17.54;86.41
12785;BME280;6456;42.680;23.260;2022-11-20T04:51:32;93914.63;;;17.54;86.21
12785;BME280;6456;42.680;23.260;2022-11-20T04:53:59;93927.59;;;17.71;86.09
12785;BME280;6456;42.680;23.260;2022-11-20T04:56:26;93911.97;;;17.44;86.79
12785;BME280;6456;42.680;23.260;2022-11-20T04:58:54;93890.47;;;17.30;86.91
12785;BME280;6456;42.680;23.260;2022-11-20T05:01:23;93917.78;;;17.61;87.20
12785;BME280;6456;42.680;23.260;2022-11-20T05:03:50;93849.84;;;17.20;87.21
12785;BME280;6456;42.680;23.260;2022-11-20T05:06:19;93856.47;;;17.22;87.19
12785;BME280;6456;42.680;23.260;2022-11-20T05:08:46;93875.25;;;17.46;86.43
12785;BME280;6456;42.680;23.260;2022-11-20T05:11:16;93820.66;;;17.00;86.01
12785;BME280;6456;42.680;23.260;2022-11-20T05:13:43;93876.84;;;17.57;85.86
12785;BME280;6456;42.680;23.260;2022-11-20T05:16:13;93877.91;;;17.46;85.78
12785;BME280;6456;42.680;23.260;2022-11-20T05:18:41;93888.00;;;17.49;85.48
12785;BME280;6456;42.680;23.260;2022-11-20T05:21:09;93849.56;;;17.16;85.03
12785;BME280;6456;42.680;23.260;2022-11-20T05:23:37;93788.03;;;16.84;84.64
12785;BME280;6456;42.680;23.260;2022-11-20T05:26:06;93823.28;;;17.10;85.10
12785;BME280;6456;42.680;23.260;2022-11-20T05:28:33;93891.97;;;17.62;84.33
12785;BME280;6456;42.680;23.260;2022-11-20T05:31:05;93887.75;;;17.56;82.94
12785;BME280;6456;42.680;23.260;2022-11-20T05:33:35;93893.63;;;17.53;84.84
12785;BME280;6456;42.680;23.260;2022-11-20T05:36:02;93859.38;;;17.26;85.58
12785;BME280;6456;42.680;23.260;2022-11-20T05:38:30;93890.16;;;17.47;86.35
12785;BME280;6456;42.680;23.260;2022-11-20T05:41:03;93916.72;;;17.62;86.31
12785;BME280;6456;42.680;23.260;2022-11-20T05:43:32;93843.47;;;17.16;85.79
12785;BME280;6456;42.680;23.260;2022-11-20T05:45:59;93902.38;;;17.48;84.51
12785;BME280;6456;42.680;23.260;2022-11-20T05:48:26;93843.72;;;17.19;83.89
12785;BME280;6456;42.680;23.260;2022-11-20T05:50:56;93911.16;;;17.54;83.79
12785;BME280;6456;42.680;23.260;2022-11-20T05:53:23;93861.22;;;17.30;84.02
12785;BME280;6456;42.680;23.260;2022-11-20T05:55:56;93921.47;;;17.70;84.20
12785;BME280;6456;42.680;23.260;2022-11-20T05:58:23;93890.66;;;17.54;84.99
12785;BME280;6456;42.680;23.260;2022-11-20T06:00:50;93928.91;;;17.73;84.81
12785;BME280;6456;42.680;23.260;2022-11-20T06:03:17;93943.25;;;17.77;84.34
12785;BME280;6456;42.680;23.260;2022-11-20T06:05:44;93943.25;;;17.77;83.72
12785;BME280;6456;42.680;23.260;2022-11-20T06:08:13;93856.00;;;17.00;82.94
12785;BME280;6456;42.680;23.260;2022-11-20T06:10:39;93947.84;;;17.57;84.21
12785;BME280;6456;42.680;23.260;2022-11-20T06:13:06;93971.19;;;17.80;85.39
12785;BME280;6456;42.680;23.260;2022-11-20T06:15:34;93982.13;;;17.73;85.97
12785;BME280;6456;42.680;23.260;2022-11-20T06:18:03;93963.53;;;17.63;85.35
12785;BME280;6456;42.680;23.260;2022-11-20T06:20:31;93977.09;;;17.67;85.39
12785;BME280;6456;42.680;23.260;2022-11-20T06:22:58;93915.19;;;17.26;85.22
12785;BME280;6456;42.680;23.260;2022-11-20T06:25:26;93946.00;;;17.42;84.74
12785;BME280;6456;42.680;23.260;2022-11-20T06:27:53;93975.22;;;17.67;83.84
12785;BME280;6456;42.680;23.260;2022-11-20T06:30:20;93927.38;;;17.47;83.51
12785;BME280;6456;42.680;23.260;2022-11-20T06:32:46;93928.44;;;17.41;82.73
12785;BME280;6456;42.680;23.260;2022-11-20T06:35:14;93965.31;;;17.88;85.17
12785;BME280;6456;42.680;23.260;2022-11-20T06:37:41;93917.53;;;17.48;84.88
12785;BME280;6456;42.680;23.260;2022-11-20T06:40:10;93966.44;;;17.67;84.53
12785;BME280;6456;42.680;23.260;2022-11-20T06:42:38;93901.63;;;17.38;86.06
12785;BME280;6456;42.680;23.260;2022-11-20T06:45:07;93920.22;;;17.53;85.01
12785;BME280;6456;42.680;23.260;2022-11-20T06:47:34;93963.44;;;17.93;84.37
12785;BME280;6456;42.680;23.260;2022-11-20T06:50:01;93889.84;;;17.59;81.74
12785;BME280;6456;42.680;23.260;2022-11-20T06:52:28;93928.38;;;17.71;80.27
12785;BME280;6456;42.680;23.260;2022-11-20T06:54:55;93933.31;;;17.98;80.34
12785;BME280;6456;42.680;23.260;2022-11-20T06:57:21;93915.25;;;17.90;79.62
12785;BME280;6456;42.680;23.260;2022-11-20T06:59:50;93976.50;;;18.34;80.57
12785;BME280;6456;42.680;23.260;2022-11-20T07:02:17;93978.03;;;18.50;80.31
12785;BME280;6456;42.680;23.260;2022-11-20T07:04:43;93948.88;;;18.25;81.58
12785;BME280;6456;42.680;23.260;2022-11-20T07:07:10;93970.13;;;18.35;80.55
12785;BME280;6456;42.680;23.260;2022-11-20T07:09:37;93980.19;;;18.48;81.16
12785;BME280;6456;42.680;23.260;2022-11-20T07:12:05;93973.28;;;18.37;82.20
12785;BME280;6456;42.680;23.260;2022-11-20T07:14:32;93940.38;;;18.23;83.50
12785;BME280;6456;42.680;23.260;2022-11-20T07:17:00;93978.06;;;18.40;83.28
12785;BME280;6456;42.680;23.260;2022-11-20T07:19:27;93966.97;;;18.28;84.98
12785;BME280;6456;42.680;23.260;2022-11-20T07:21:54;93907.00;;;17.91;85.57
12785;BME280;6456;42.680;23.260;2022-11-20T07:24:21;93926.19;;;17.88;84.53
12785;BME280;6456;42.680;23.260;2022-11-20T07:26:48;93967.88;;;18.08;84.42
12785;BME280;6456;42.680;23.260;2022-11-20T07:29:15;93918.78;;;17.75;85.86
12785;BME280;6456;42.680;23.260;2022-11-20T07:31:42;93973.75;;;18.00;86.87
12785;BME280;6456;42.680;23.260;2022-11-20T07:34:11;93988.84;;;18.20;85.66
12785;BME280;6456;42.680;23.260;2022-11-20T07:36:37;93989.38;;;18.17;86.34
12785;BME280;6456;42.680;23.260;2022-11-20T07:39:05;93932.91;;;17.76;85.18
12785;BME280;6456;42.680;23.260;2022-11-20T07:41:32;93982.56;;;18.01;85.47
12785;BME280;6456;42.680;23.260;2022-11-20T07:43:59;93958.63;;;17.90;84.93
12785;BME280;6456;42.680;23.260;2022-11-20T07:46:26;93993.41;;;18.09;84.57
12785;BME280;6456;42.680;23.260;2022-11-20T07:48:52;93964.19;;;17.94;83.71
12785;BME280;6456;42.680;23.260;2022-11-20T07:51:21;93989.38;;;18.17;82.98
12785;BME280;6456;42.680;23.260;2022-11-20T07:53:50;93992.59;;;18.09;81.34
12785;BME280;6456;42.680;23.260;2022-11-20T07:56:17;93929.97;;;17.72;82.33
12785;BME280;6456;42.680;23.260;2022-11-20T07:58:44;94001.38;;;18.14;80.21
12785;BME280;6456;42.680;23.260;2022-11-20T08:01:11;93994.28;;;17.89;78.66
12785;BME280;6456;42.680;23.260;2022-11-20T08:03:38;94022.63;;;18.24;80.21
12785;BME280;6456;42.680;23.260;2022-11-20T08:06:05;93998.16;;;18.22;78.39
12785;BME280;6456;42.680;23.260;2022-11-20T08:08:34;93942.31;;;18.07;78.05
12785;BME280;6456;42.680;23.260;2022-11-20T08:11:00;94012.16;;;18.48;78.73
12785;BME280;6456;42.680;23.260;2022-11-20T08:13:41;93996.97;;;18.48;79.04
12785;BME280;6456;42.680;23.260;2022-11-20T08:16:25;93999.91;;;18.47;79.86
12785;BME280;6456;42.680;23.260;2022-11-20T08:18:52;94008.34;;;18.59;80.58
12785;BME280;6456;42.680;23.260;2022-11-20T08:21:19;93987.63;;;18.51;82.27
12785;BME280;6456;42.680;23.260;2022-11-20T08:23:47;94007.25;;;18.65;83.46
12785;BME280;6456;42.680;23.260;2022-11-20T08:26:14;94010.97;;;18.64;81.44
12785;BME280;6456;42.680;23.260;2022-11-20T08:28:41;94000.59;;;18.63;83.80
12785;BME280;6456;42.680;23.260;2022-11-20T08:31:08;94016.59;;;18.63;82.71
12785;BME280;6456;42.680;23.260;2022-11-20T08:33:35;93959.25;;;18.21;81.43
12785;BME280;6456;42.680;23.260;2022-11-20T08:36:03;94000.41;;;18.44;84.00
12785;BME280;6456;42.680;23.260;2022-11-20T08:38:31;93984.47;;;18.39;84.64
12785;BME280;6456;42.680;23.260;2022-11-20T08:41:00;93984.47;;;18.39;83.91
12785;BME280;6456;42.680;23.260;2022-11-20T08:43:44;94037.69;;;18.54;86.33
12785;BME280;6456;42.680;23.260;2022-11-20T08:46:11;94021.78;;;18.34;91.85
12785;BME280;6456;42.680;23.260;2022-11-20T08:48:41;93955.19;;;17.90;95.96
12785;BME280;6456;42.680;23.260;2022-11-20T08:51:08;94008.09;;;18.02;97.04
12785;BME280;6456;42.680;23.260;2022-11-20T08:53:36;93934.84;;;17.45;98.93
12785;BME280;6456;42.680;23.260;2022-11-20T08:56:05;93988.47;;;17.82;100.00
12785;BME280;6456;42.680;23.260;2022-11-20T08:58:32;93974.19;;;17.58;100.00
12785;BME280;6456;42.680;23.260;2022-11-20T09:00:59;94036.31;;;17.98;100.00
12785;BME280;6456;42.680;23.260;2022-11-20T09:03:26;94004.47;;;17.72;100.00
12785;BME280;6456;42.680;23.260;2022-11-20T09:05:57;94038.19;;;17.92;100.00
12785;BME280;6456;42.680;23.260;2022-11-20T09:08:25;94040.66;;;17.78;100.00
12785;BME280;6456;42.680;23.260;2022-11-20T09:10:53;94008.78;;;17.48;100.00
12785;BME280;6456;42.680;23.260;2022-11-20T09:13:22;94006.91;;;17.44;100.00
12785;BME280;6456;42.680;23.260;2022-11-20T09:15:53;93958.06;;;17.04;100.00
12785;BME280;6456;42.680;23.260;2022-11-20T09:18:20;94062.22;;;17.57;100.00
12785;BME280;6456;42.680;23.260;2022-11-20T09:20:47;93954.88;;;16.87;100.00
12785;BME280;6456;42.680;23.260;2022-11-20T09:23:14;94015.47;;;17.15;100.00
12785;BME280;6456;42.680;23.260;2022-11-20T09:25:41;93985.16;;;17.01;100.00
12785;BME280;6456;42.680;23.260;2022-11-20T09:28:08;94060.91;;;17.39;100.00
12785;BME280;6456;42.680;23.260;2022-11-20T09:30:36;94007.22;;;17.07;100.00
12785;BME280;6456;42.680;23.260;2022-11-20T09:33:04;93994.22;;;16.90;100.00
12785;BME280;6456;42.680;23.260;2022-11-20T09:35:31;93974.81;;;16.80;100.00
12785;BME280;6456;42.680;23.260;2022-11-20T09:37:58;93995.00;;;17.16;100.00
12785;BME280;6456;42.680;23.260;2022-11-20T09:40:26;93943.97;;;16.84;100.00
12785;BME280;6456;42.680;23.260;2022-11-20T09:42:58;93928.31;;;16.77;100.00
12785;BME280;6456;42.680;23.260;2022-11-20T09:45:39;93979.59;;;17.13;100.00
12785;BME280;6456;42.680;23.260;2022-11-20T09:48:35;93994.69;;;17.38;100.00
12785;BME280;6456;42.680;23.260;2022-11-20T09:51:09;93988.84;;;17.46;100.00
12785;BME280;6456;42.680;23.260;2022-11-20T09:53:47;93978.72;;;17.53;100.00
12785;BME280;6456;42.680;23.260;2022-11-20T09:56:20;93974.97;;;17.59;100.00
12785;BME280;6456;42.680;23.260;2022-11-20T09:58:49;93973.13;;;17.59;100.00
12785;BME280;6456;42.680;23.260;2022-11-20T10:01:19;93960.91;;;17.58;100.00
12785;BME280;6456;42.680;23.260;2022-11-20T10:03:53;93937.19;;;17.52;100.00
12785;BME280;6456;42.680;23.260;2022-11-20T10:06:24;93970.38;;;17.84;100.00
12785;BME280;6456;42.680;23.260;2022-11-20T10:09:01;93960.56;;;17.75;100.00
12785;BME280;6456;42.680;23.260;2022-11-20T10:11:37;93994.47;;;18.13;100.00
12785;BME280;6456;42.680;23.260;2022-11-20T10:14:16;93989.19;;;18.03;100.00
12785;BME280;6456;42.680;23.260;2022-11-20T10:16:55;93978.28;;;18.00;100.00
12785;BME280;6456;42.680;23.260;2022-11-20T10:19:39;93991.03;;;18.08;100.00
12785;BME280;6456;42.680;23.260;2022-11-20T10:22:16;94011.22;;;18.14;100.00
12785;BME280;6456;42.680;23.260;2022-11-20T10:24:55;93986.75;;;18.12;100.00
12785;BME280;6456;42.680;23.260;2022-11-20T10:30:16;94005.88;;;18.19;100.00
12785;BME280;6456;42.680;23.260;2022-11-20T10:32:47;93987.44;;;17.78;100.00
12785;BME280;6456;42.680;23.260;2022-11-20T10:35:20;94005.28;;;17.68;100.00
12785;BME280;6456;42.680;23.260;2022-11-20T10:37:53;94007.91;;;17.83;100.00
12785;BME280;6456;42.680;23.260;2022-11-20T10:40:27;94000.47;;;17.75;100.00
12785;BME280;6456;42.680;23.260;2022-11-20T10:42:57;94002.91;;;17.61;100.00
12785;BME280;6456;42.680;23.260;2022-11-20T10:45:36;93981.66;;;17.36;100.00
12785;BME280;6456;42.680;23.260;2022-11-20T10:48:14;93960.19;;;17.07;100.00
12785;BME280;6456;42.680;23.260;2022-11-20T10:50:52;93947.19;;;16.96;100.00
12785;BME280;6456;42.680;23.260;2022-11-20T10:53:33;94005.63;;;17.16;100.00
12785;BME280;6456;42.680;23.260;2022-11-20T10:56:14;94010.97;;;17.11;100.00
12785;BME280;6456;42.680;23.260;2022-11-20T10:58:52;94023.69;;;16.94;100.00
12785;BME280;6456;42.680;23.260;2022-11-20T11:01:22;94044.69;;;16.75;100.00
12785;BME280;6456;42.680;23.260;2022-11-20T11:03:50;94044.81;;;16.23;100.00
12785;BME280;6456;42.680;23.260;2022-11-20T11:06:23;94036.41;;;15.84;100.00
12785;BME280;6456;42.680;23.260;2022-11-20T11:08:56;94080.00;;;16.03;100.00
12785;BME280;6456;42.680;23.260;2022-11-20T11:11:29;93982.81;;;15.30;100.00
12785;BME280;6456;42.680;23.260;2022-11-20T11:14:04;94038.19;;;15.69;100.00
12785;BME280;6456;42.680;23.260;2022-11-20T11:16:32;93970.63;;;15.29;100.00
12785;BME280;6456;42.680;23.260;2022-11-20T11:19:12;94041.28;;;15.51;100.00
12785;BME280;6456;42.680;23.260;2022-11-20T11:21:46;94027.16;;;15.40;100.00
12785;BME280;6456;42.680;23.260;2022-11-20T11:24:23;93993.72;;;14.97;100.00
12785;BME280;6456;42.680;23.260;2022-11-20T11:26:52;94030.59;;;15.40;100.00
12785;BME280;6456;42.680;23.260;2022-11-20T11:29:21;93976.38;;;15.16;100.00
12785;BME280;6456;42.680;23.260;2022-11-20T11:31:49;93948.13;;;14.90;100.00
12785;BME280;6456;42.680;23.260;2022-11-20T11:34:17;93901.34;;;14.69;100.00
12785;BME280;6456;42.680;23.260;2022-11-20T11:36:54;93999.25;;;15.27;100.00
12785;BME280;6456;42.680;23.260;2022-11-20T11:39:23;94007.75;;;15.34;100.00
12785;BME280;6456;42.680;23.260;2022-11-20T11:41:51;94027.88;;;15.30;100.00
12785;BME280;6456;42.680;23.260;2022-11-20T11:44:20;94021.00;;;15.34;100.00
12785;BME280;6456;42.680;23.260;2022-11-20T11:47:08;94017.81;;;15.32;100.00
12785;BME280;6456;42.680;23.260;2022-11-20T11:49:38;94018.91;;;15.36;100.00
12785;BME280;6456;42.680;23.260;2022-11-20T11:52:12;93997.63;;;15.26;100.00
12785;BME280;6456;42.680;23.260;2022-11-20T11:54:44;94010.47;;;15.45;99.03
12785;BME280;6456;42.680;23.260;2022-11-20T11:57:18;93993.50;;;15.40;99.30
12785;BME280;6456;42.680;23.260;2022-11-20T11:59:54;94021.16;;;15.55;97.86
12785;BME280;6456;42.680;23.260;2022-11-20T12:02:36;94007.13;;;15.59;98.37
12785;BME280;6456;42.680;23.260;2022-11-20T12:05:16;93978.31;;;15.31;96.86
12785;BME280;6456;42.680;23.260;2022-11-20T12:07:46;94000.50;;;15.62;93.13
12785;BME280;6456;42.680;23.260;2022-11-20T12:10:21;93938.22;;;15.17;94.72
12785;BME280;6456;42.680;23.260;2022-11-20T12:12:52;93955.53;;;15.35;93.98
12785;BME280;6456;42.680;23.260;2022-11-20T12:15:26;94003.47;;;15.70;95.10
12785;BME280;6456;42.680;23.260;2022-11-20T12:17:55;93953.16;;;15.38;93.50
12785;BME280;6456;42.680;23.260;2022-11-20T12:20:27;93899.94;;;14.98;92.68
12785;BME280;6456;42.680;23.260;2022-11-20T12:23:02;93944.66;;;15.31;93.69
12785;BME280;6456;42.680;23.260;2022-11-20T12:25:35;93940.41;;;15.30;94.30
12785;BME280;6456;42.680;23.260;2022-11-20T12:28:26;93991.19;;;15.54;91.91
12785;BME280;6456;42.680;23.260;2022-11-20T12:31:15;93953.47;;;15.42;89.14
12785;BME280;6456;42.680;23.260;2022-11-20T12:33:54;93978.25;;;15.63;97.17
12785;BME280;6456;42.680;23.260;2022-11-20T12:36:35;93874.72;;;14.91;97.60
12785;BME280;6456;42.680;23.260;2022-11-20T12:39:18;93907.50;;;15.21;98.02
12785;BME280;6456;42.680;23.260;2022-11-20T12:41:56;93906.72;;;15.26;97.42
12785;BME280;6456;42.680;23.260;2022-11-20T12:44:58;93942.69;;;15.64;94.33
12785;BME280;6456;42.680;23.260;2022-11-20T12:47:56;93936.09;;;15.71;93.07
12785;BME280;6456;42.680;23.260;2022-11-20T12:50:32;93930.78;;;15.71;93.44
12785;BME280;6456;42.680;23.260;2022-11-20T12:53:10;93934.81;;;15.84;91.75
12785;BME280;6456;42.680;23.260;2022-11-20T12:55:48;93941.22;;;15.88;90.40
12785;BME280;6456;42.680;23.260;2022-11-20T12:58:24;93913.31;;;15.70;90.05
12785;BME280;6456;42.680;23.260;2022-11-20T13:01:00;93923.38;;;15.73;90.42
12785;BME280;6456;42.680;23.260;2022-11-20T13:03:40;93927.94;;;15.88;91.48
12785;BME280;6456;42.680;23.260;2022-11-20T13:06:15;93921.56;;;15.94;93.72
12785;BME280;6456;42.680;23.260;2022-11-20T13:08:48;93906.72;;;15.93;96.21
12785;BME280;6456;42.680;23.260;2022-11-20T13:11:23;93849.63;;;15.65;100.00
12785;BME280;6456;42.680;23.260;2022-11-20T13:14:08;93923.66;;;15.77;100.00
12785;BME280;6456;42.680;23.260;2022-11-20T13:16:42;93930.09;;;15.39;100.00
12785;BME280;6456;42.680;23.260;2022-11-20T13:19:15;93951.94;;;15.09;100.00